createdAt,value
2023-01-26T00:01:40.710Z,0.60
2023-01-26T00:04:08.454Z,0.67
2023-01-26T00:06:36.185Z,0.64
2023-01-26T00:09:04.015Z,0.40
2023-01-26T00:11:32.149Z,0.63
2023-01-26T00:14:00.388Z,-0.07
2023-01-26T00:16:28.354Z,-0.80
2023-01-26T00:18:56.575Z,-1.46
2023-01-26T00:21:24.566Z,-1.15
2023-01-26T00:23:52.707Z,-1.08
2023-01-26T00:26:22.401Z,-0.74
2023-01-26T00:28:50.294Z,-0.68
2023-01-26T00:31:24.596Z,-0.93
2023-01-26T00:33:53.884Z,-1.31
2023-01-26T00:36:21.569Z,-1.46
2023-01-26T00:38:49.278Z,-0.63
2023-01-26T00:41:35.400Z,-0.93
2023-01-26T00:44:03.165Z,-0.83
2023-01-26T00:46:30.879Z,-0.99
2023-01-26T00:49:00.914Z,-0.65
2023-01-26T00:51:28.803Z,-0.95
2023-01-26T00:53:57.472Z,-0.75
2023-01-26T00:56:28.225Z,-1.08
2023-01-26T00:58:56.137Z,-0.78
2023-01-26T01:01:23.873Z,-0.41
2023-01-26T01:03:52.253Z,-0.88
2023-01-26T01:06:19.964Z,-0.19
2023-01-26T01:08:47.678Z,-0.74
2023-01-26T01:11:15.445Z,-0.56
2023-01-26T01:13:43.144Z,-0.54
2023-01-26T01:16:12.873Z,-1.15
2023-01-26T01:18:40.787Z,-0.89
2023-01-26T01:21:10.946Z,-1.13
2023-01-26T01:23:38.734Z,-0.06
2023-01-26T01:26:06.488Z,0.10
2023-01-26T01:28:34.561Z,0.39
2023-01-26T01:31:06.353Z,0.69
2023-01-26T01:33:34.143Z,0.57
2023-01-26T01:36:03.410Z,0.72
2023-01-26T01:38:31.321Z,0.64
2023-01-26T01:40:59.124Z,0.83
2023-01-26T01:43:27.020Z,1.04
2023-01-26T01:45:54.905Z,0.87
2023-01-26T01:48:36.654Z,0.60
2023-01-26T01:51:08.769Z,0.23
2023-01-26T01:53:39.226Z,0.49
2023-01-26T01:56:10.263Z,0.56
2023-01-26T01:58:39.846Z,-0.19
2023-01-26T02:01:07.670Z,0.16
2023-01-26T02:03:35.399Z,-0.01
2023-01-26T02:06:14.630Z,0.15
2023-01-26T02:08:47.960Z,0.32
2023-01-26T02:11:25.815Z,0.36
2023-01-26T02:13:54.414Z,0.42
2023-01-26T02:16:22.350Z,0.54
2023-01-26T02:18:50.132Z,0.57
2023-01-26T02:21:19.563Z,0.36
2023-01-26T02:24:16.768Z,0.01
2023-01-26T02:26:44.575Z,-0.10
2023-01-26T02:29:12.891Z,0.16
2023-01-26T02:31:44.148Z,0.27
2023-01-26T02:34:12.075Z,0.53
2023-01-26T02:36:39.822Z,0.56
2023-01-26T02:39:20.440Z,0.49
2023-01-26T02:42:07.491Z,0.56
2023-01-26T02:44:35.345Z,0.75
2023-01-26T02:47:12.084Z,0.83
2023-01-26T02:49:52.877Z,0.87
2023-01-26T02:52:24.032Z,0.80
2023-01-26T02:55:17.746Z,0.74
2023-01-26T02:57:45.744Z,0.73
2023-01-26T03:00:22.314Z,0.87
2023-01-26T03:02:52.318Z,0.73
2023-01-26T03:05:20.100Z,0.80
2023-01-26T03:07:47.870Z,0.32
2023-01-26T03:10:18.453Z,0.24
2023-01-26T03:12:46.353Z,0.43
2023-01-26T03:15:32.575Z,0.57
2023-01-26T03:18:23.563Z,0.59
2023-01-26T03:21:10.133Z,0.73
2023-01-26T03:23:56.534Z,0.75
2023-01-26T03:26:44.506Z,0.85
2023-01-26T03:29:13.231Z,0.68
2023-01-26T03:31:42.951Z,0.69
2023-01-26T03:34:10.861Z,0.68
2023-01-26T03:36:39.777Z,0.48
2023-01-26T03:39:32.768Z,0.79
2023-01-26T03:42:19.572Z,0.95
2023-01-26T03:45:05.856Z,0.87
2023-01-26T03:47:53.409Z,0.94
2023-01-26T03:50:39.900Z,0.72
2023-01-26T03:53:39.374Z,0.74
2023-01-26T03:56:18.027Z,0.62
2023-01-26T03:58:51.867Z,0.84
2023-01-26T04:01:26.487Z,0.69
2023-01-26T04:04:14.781Z,0.63
2023-01-26T04:07:03.557Z,0.79
2023-01-26T04:09:31.576Z,0.82
2023-01-26T04:11:59.676Z,0.41
2023-01-26T04:14:50.311Z,0.33
2023-01-26T04:17:42.571Z,0.38
2023-01-26T04:20:29.661Z,0.18
2023-01-26T04:22:57.558Z,-0.33
2023-01-26T04:25:25.506Z,0.28
2023-01-26T04:27:53.550Z,0.42
2023-01-26T04:30:21.564Z,0.59
2023-01-26T04:32:56.927Z,0.43
2023-01-26T04:35:24.882Z,0.50
2023-01-26T04:37:52.761Z,0.52
2023-01-26T04:40:20.968Z,0.69
2023-01-26T04:42:50.014Z,0.67
2023-01-26T04:45:18.002Z,0.80
2023-01-26T04:47:46.487Z,0.70
2023-01-26T04:50:16.588Z,0.73
2023-01-26T04:52:46.241Z,0.66
2023-01-26T04:55:14.392Z,0.49
2023-01-26T04:57:43.718Z,0.64
2023-01-26T05:00:12.721Z,0.71
2023-01-26T05:02:41.706Z,0.38
2023-01-26T05:05:10.167Z,0.55
2023-01-26T05:07:38.447Z,0.48
2023-01-26T05:10:06.658Z,0.35
2023-01-26T05:12:44.354Z,0.59
2023-01-26T05:15:32.390Z,0.36
2023-01-26T05:18:05.380Z,0.70
2023-01-26T05:20:59.050Z,0.19
2023-01-26T05:23:28.321Z,0.41
2023-01-26T05:26:31.953Z,0.13
2023-01-26T05:29:03.848Z,0.49
2023-01-26T05:31:32.475Z,0.33
2023-01-26T05:34:00.254Z,0.43
2023-01-26T05:36:28.133Z,0.06
2023-01-26T05:38:56.141Z,0.30
2023-01-26T05:41:26.718Z,0.51
2023-01-26T05:44:20.640Z,0.63
2023-01-26T05:46:59.450Z,0.57
2023-01-26T05:49:27.195Z,0.59
2023-01-26T05:51:55.611Z,0.61
2023-01-26T05:54:24.563Z,0.44
2023-01-26T05:56:57.704Z,0.64
2023-01-26T05:59:27.247Z,0.60
2023-01-26T06:01:56.512Z,0.44
2023-01-26T06:04:24.355Z,0.39
2023-01-26T06:06:55.706Z,0.48
2023-01-26T06:09:27.697Z,0.57
2023-01-26T06:12:01.580Z,0.44
2023-01-26T06:14:55.069Z,0.56
2023-01-26T06:17:24.098Z,0.77
2023-01-26T06:19:58.566Z,0.61
2023-01-26T06:22:26.431Z,0.53
2023-01-26T06:24:54.167Z,0.36
2023-01-26T06:27:21.974Z,0.53
2023-01-26T06:29:51.744Z,0.69
2023-01-26T06:32:19.574Z,0.44
2023-01-26T06:34:53.392Z,0.56
2023-01-26T06:37:22.165Z,0.43
2023-01-26T06:39:51.887Z,0.31
2023-01-26T06:42:19.648Z,0.42
2023-01-26T06:44:47.471Z,0.25
2023-01-26T06:47:15.869Z,-0.06
2023-01-26T06:49:44.995Z,0.16
2023-01-26T06:52:30.868Z,0.37
2023-01-26T06:55:05.011Z,0.16
2023-01-26T06:57:55.230Z,0.46
2023-01-26T07:00:41.856Z,0.68
2023-01-26T07:03:15.633Z,0.54
2023-01-26T07:05:43.437Z,0.44
2023-01-26T07:08:11.170Z,0.69
2023-01-26T07:10:38.979Z,0.75
2023-01-26T07:13:07.053Z,0.89
2023-01-26T07:15:34.756Z,0.87
2023-01-26T07:18:02.602Z,0.88
2023-01-26T07:20:30.431Z,0.66
2023-01-26T07:23:00.593Z,0.56
2023-01-26T07:25:28.324Z,0.61
2023-01-26T07:27:59.291Z,0.62
2023-01-26T07:30:27.222Z,0.64
2023-01-26T07:32:54.923Z,0.76
2023-01-26T07:35:22.618Z,0.17
2023-01-26T07:37:50.396Z,0.56
2023-01-26T07:40:18.279Z,0.43
2023-01-26T07:42:46.489Z,0.57
2023-01-26T07:45:21.883Z,0.82
2023-01-26T07:47:49.618Z,0.48
2023-01-26T07:50:18.413Z,0.47
2023-01-26T07:52:46.074Z,0.62
2023-01-26T07:55:14.489Z,0.85
2023-01-26T07:57:42.197Z,0.95
2023-01-26T08:00:12.080Z,0.46
2023-01-26T08:02:40.276Z,0.74
2023-01-26T08:05:08.468Z,0.37
2023-01-26T08:07:36.175Z,0.56
2023-01-26T08:10:04.342Z,0.75
2023-01-26T08:12:32.044Z,0.87
2023-01-26T08:14:59.800Z,0.89
2023-01-26T08:17:33.525Z,0.87
2023-01-26T08:20:01.275Z,0.91
2023-01-26T08:22:28.997Z,0.68
2023-01-26T08:24:56.718Z,0.91
2023-01-26T08:27:24.392Z,0.54
2023-01-26T08:29:52.162Z,0.48
2023-01-26T08:32:20.217Z,0.09
2023-01-26T08:34:47.916Z,0.58
2023-01-26T08:37:15.663Z,0.62
2023-01-26T08:39:43.421Z,0.69
2023-01-26T08:42:11.098Z,0.64
2023-01-26T08:44:38.808Z,0.81
2023-01-26T08:47:06.687Z,0.63
2023-01-26T08:49:34.549Z,0.16
2023-01-26T08:52:02.218Z,0.48
2023-01-26T08:54:30.155Z,0.55
2023-01-26T08:56:58.042Z,0.74
2023-01-26T08:59:25.825Z,0.68
2023-01-26T09:01:53.651Z,0.59
2023-01-26T09:04:21.419Z,0.61
2023-01-26T09:06:49.106Z,0.55
2023-01-26T09:09:16.833Z,0.20
2023-01-26T09:11:44.744Z,0.62
2023-01-26T09:14:12.439Z,0.76
2023-01-26T09:16:40.158Z,0.55
2023-01-26T09:19:07.946Z,0.48
2023-01-26T09:21:35.693Z,0.27
2023-01-26T09:24:03.629Z,0.53
2023-01-26T09:26:31.439Z,0.43
2023-01-26T09:28:59.222Z,0.66
2023-01-26T09:31:27.067Z,0.66
2023-01-26T09:33:54.930Z,0.63
2023-01-26T09:36:22.613Z,0.66
2023-01-26T09:38:51.174Z,0.55
2023-01-26T09:41:24.897Z,0.47
2023-01-26T09:43:57.483Z,0.82
2023-01-26T09:46:37.978Z,0.86
2023-01-26T09:49:22.198Z,1.01
2023-01-26T09:52:25.279Z,1.02
2023-01-26T09:54:54.332Z,0.91
2023-01-26T09:57:32.796Z,0.95
2023-01-26T10:00:11.642Z,0.82
2023-01-26T10:02:48.207Z,0.60
2023-01-26T10:05:25.418Z,1.01
2023-01-26T10:07:53.133Z,1.14
2023-01-26T10:10:26.412Z,0.74
2023-01-26T10:12:54.098Z,0.51
2023-01-26T10:15:28.029Z,0.88
2023-01-26T10:17:55.816Z,0.89
2023-01-26T10:20:32.605Z,0.73
2023-01-26T10:23:17.835Z,0.73
2023-01-26T10:25:48.399Z,0.78
2023-01-26T10:28:20.739Z,0.58
2023-01-26T10:30:49.006Z,0.75
2023-01-26T10:33:23.885Z,0.71
2023-01-26T10:35:51.853Z,0.08
2023-01-26T10:38:32.616Z,0.80
2023-01-26T10:41:04.900Z,0.40
2023-01-26T10:43:37.795Z,0.41
2023-01-26T10:46:05.642Z,0.61
2023-01-26T10:48:34.257Z,0.67
2023-01-26T10:51:15.732Z,0.82
2023-01-26T10:53:43.465Z,0.72
2023-01-26T10:56:14.868Z,0.19
2023-01-26T10:58:45.820Z,0.24
2023-01-26T11:01:18.974Z,0.46
2023-01-26T11:04:12.230Z,0.45
2023-01-26T11:06:40.085Z,0.42
2023-01-26T11:09:13.820Z,0.05
2023-01-26T11:11:41.751Z,0.44
2023-01-26T11:14:17.293Z,0.83
2023-01-26T11:16:52.224Z,0.75
2023-01-26T11:19:43.566Z,1.06
2023-01-26T11:22:40.497Z,0.47
2023-01-26T11:25:17.646Z,0.42
2023-01-26T11:28:12.747Z,0.61
2023-01-26T11:30:58.947Z,1.00
2023-01-26T11:33:29.709Z,0.98
2023-01-26T11:36:05.473Z,0.58
2023-01-26T11:38:36.413Z,0.72
2023-01-26T11:41:06.880Z,0.90
2023-01-26T11:43:54.392Z,1.17
2023-01-26T11:46:56.145Z,1.14
2023-01-26T11:49:46.269Z,0.12
2023-01-26T11:52:40.692Z,0.53
2023-01-26T11:55:25.894Z,0.83
2023-01-26T11:58:05.463Z,1.06
2023-01-26T12:00:36.140Z,0.99
2023-01-26T12:03:05.487Z,0.45
2023-01-26T12:05:44.471Z,0.79
2023-01-26T12:08:24.267Z,0.79
2023-01-26T12:11:28.232Z,1.02
2023-01-26T12:13:58.723Z,0.82
2023-01-26T12:16:43.242Z,0.79
2023-01-26T12:19:38.144Z,0.76
2023-01-26T12:22:19.977Z,0.78
2023-01-26T12:25:16.548Z,0.61
2023-01-26T12:27:43.951Z,0.59
2023-01-26T12:30:30.884Z,0.42
2023-01-26T12:32:58.612Z,0.62
2023-01-26T12:35:45.217Z,0.58
2023-01-26T12:38:21.643Z,0.90
2023-01-26T12:41:09.718Z,0.88
2023-01-26T12:44:00.880Z,0.67
2023-01-26T12:46:28.962Z,0.74
2023-01-26T12:49:01.457Z,0.98
2023-01-26T12:51:42.042Z,0.90
2023-01-26T13:07:41.190Z,0.82
2023-01-26T13:10:15.049Z,1.31
2023-01-26T13:12:52.169Z,0.93
2023-01-26T13:15:21.628Z,1.27
2023-01-26T13:17:52.976Z,0.91
2023-01-26T13:20:42.160Z,1.20
2023-01-26T13:23:42.239Z,1.06
2023-01-26T13:26:15.631Z,1.11
2023-01-26T13:28:44.315Z,0.80
2023-01-26T13:31:12.190Z,1.13
2023-01-26T13:33:41.103Z,0.96
2023-01-26T13:36:17.097Z,1.15
2023-01-26T13:38:53.735Z,0.99
2023-01-26T13:41:21.570Z,1.12
2023-01-26T13:44:10.403Z,1.33
2023-01-26T13:46:43.986Z,1.05
2023-01-26T13:49:40.426Z,1.10
2023-01-26T13:52:26.928Z,0.72
2023-01-26T13:54:56.783Z,0.76
2023-01-26T13:57:29.349Z,1.06
2023-01-26T14:00:01.954Z,1.19
2023-01-26T14:02:35.350Z,1.34
2023-01-26T14:05:08.614Z,1.36
2023-01-26T14:07:39.865Z,1.20
2023-01-26T14:10:08.109Z,1.27
2023-01-26T14:12:41.911Z,1.42
2023-01-26T14:15:24.116Z,1.19
2023-01-26T14:18:00.206Z,0.96
2023-01-26T14:20:28.870Z,0.99
2023-01-26T14:23:03.737Z,0.64
2023-01-26T14:25:31.411Z,0.92
2023-01-26T14:27:59.116Z,0.79
2023-01-26T14:30:31.791Z,1.03
2023-01-26T14:33:08.211Z,1.14
2023-01-26T14:35:35.931Z,1.23
2023-01-26T14:38:17.934Z,1.20
2023-01-26T14:40:49.029Z,0.91
2023-01-26T14:43:17.129Z,1.13
2023-01-26T14:45:57.913Z,0.91
2023-01-26T14:48:29.874Z,0.39
2023-01-26T14:50:57.583Z,0.67
2023-01-26T14:53:25.571Z,0.87
2023-01-26T14:55:53.271Z,0.64
2023-01-26T14:58:24.561Z,0.79
2023-01-26T15:00:52.482Z,0.58
2023-01-26T15:03:34.156Z,0.72
2023-01-26T15:06:13.963Z,0.30
2023-01-26T15:08:42.046Z,0.38
2023-01-26T15:11:28.636Z,0.53
2023-01-26T15:13:56.399Z,0.50
2023-01-26T15:16:25.018Z,0.33
2023-01-26T15:19:08.525Z,0.04
2023-01-26T15:21:40.132Z,0.56
2023-01-26T15:24:14.926Z,0.76
2023-01-26T15:26:42.919Z,0.55
2023-01-26T15:29:31.056Z,0.64
2023-01-26T15:31:58.841Z,0.72
2023-01-26T15:34:32.622Z,0.66
2023-01-26T15:37:01.087Z,0.71
2023-01-26T15:39:28.858Z,0.18
2023-01-26T15:42:16.150Z,0.67
2023-01-26T15:44:43.918Z,0.70
2023-01-26T15:47:12.202Z,0.28
2023-01-26T15:49:40.084Z,0.43
2023-01-26T15:52:23.286Z,0.74
2023-01-26T15:54:51.956Z,0.54
2023-01-26T15:57:19.751Z,0.83
2023-01-26T15:59:47.487Z,0.60
2023-01-26T16:02:16.634Z,0.49
2023-01-26T16:04:44.504Z,0.88
2023-01-26T16:07:16.541Z,0.80
2023-01-26T16:09:44.316Z,0.84
2023-01-26T16:12:33.792Z,0.99
2023-01-26T16:15:01.555Z,0.58
2023-01-26T16:17:29.260Z,0.42
2023-01-26T16:19:57.178Z,0.24
2023-01-26T16:22:25.517Z,0.37
2023-01-26T16:24:53.283Z,0.69
2023-01-26T16:27:21.685Z,0.45
2023-01-26T16:29:49.455Z,-0.03
2023-01-26T16:32:37.294Z,0.42
2023-01-26T16:35:19.197Z,0.37
2023-01-26T16:37:46.944Z,0.62
2023-01-26T16:40:16.305Z,0.70
2023-01-26T16:42:46.402Z,0.16
2023-01-26T16:45:18.263Z,0.12
2023-01-26T16:47:50.830Z,-0.20
2023-01-26T16:50:18.910Z,-0.01
2023-01-26T16:52:46.767Z,0.44
2023-01-26T16:55:16.034Z,0.61
2023-01-26T16:57:45.917Z,-0.07
2023-01-26T17:00:16.367Z,0.28
2023-01-26T17:02:46.788Z,-0.11
2023-01-26T17:05:19.141Z,0.13
2023-01-26T17:07:46.946Z,0.04
2023-01-26T17:10:15.208Z,0.21
2023-01-26T17:12:44.072Z,-0.24
2023-01-26T17:15:12.578Z,0.22
2023-01-26T17:17:42.430Z,0.12
2023-01-26T17:20:18.968Z,0.42
2023-01-26T17:22:48.504Z,0.70
2023-01-26T17:25:17.495Z,0.60
2023-01-26T17:27:46.386Z,0.57
2023-01-26T17:30:14.324Z,0.72
2023-01-26T17:32:42.561Z,0.65
2023-01-26T17:35:10.752Z,0.69
2023-01-26T17:37:39.535Z,0.67
2023-01-26T17:40:08.372Z,0.58
2023-01-26T17:42:36.349Z,0.81
2023-01-26T17:45:04.384Z,0.73
2023-01-26T17:47:33.521Z,0.85
2023-01-26T17:50:01.470Z,0.66
2023-01-26T17:52:31.351Z,0.83
2023-01-26T17:54:59.170Z,0.85
2023-01-26T17:57:26.858Z,0.83
2023-01-26T17:59:54.590Z,0.94
2023-01-26T18:02:22.342Z,0.66
2023-01-26T18:04:50.079Z,0.69
2023-01-26T18:07:17.792Z,0.87
2023-01-26T18:09:45.616Z,0.88
2023-01-26T18:12:13.335Z,0.69
2023-01-26T18:14:41.109Z,0.88
2023-01-26T18:17:08.771Z,0.84
2023-01-26T18:19:36.569Z,0.83
2023-01-26T18:22:04.300Z,0.62
2023-01-26T18:24:32.196Z,0.72
2023-01-26T18:26:59.962Z,0.34
2023-01-26T18:29:27.792Z,0.64
2023-01-26T18:31:55.568Z,0.61
2023-01-26T18:34:23.314Z,0.59
2023-01-26T18:36:50.979Z,0.70
2023-01-26T18:39:19.494Z,0.66
2023-01-26T18:41:47.265Z,0.71
2023-01-26T18:44:14.982Z,0.67
2023-01-26T18:46:42.689Z,0.67
2023-01-26T18:49:10.571Z,0.80
2023-01-26T18:51:38.352Z,0.63
2023-01-26T18:54:06.090Z,0.62
2023-01-26T18:56:33.939Z,0.55
2023-01-26T18:59:01.725Z,0.55
2023-01-26T19:01:29.506Z,0.61
2023-01-26T19:03:58.660Z,0.86
2023-01-26T19:06:26.620Z,0.56
2023-01-26T19:08:58.475Z,0.82
2023-01-26T19:11:33.599Z,0.58
2023-01-26T19:14:01.820Z,0.39
2023-01-26T19:16:29.888Z,0.55
2023-01-26T19:18:57.953Z,0.34
2023-01-26T19:21:27.566Z,0.72
2023-01-26T19:23:56.575Z,0.44
2023-01-26T19:26:26.188Z,0.50
2023-01-26T19:28:53.925Z,0.68
2023-01-26T19:31:21.874Z,0.15
2023-01-26T19:33:53.398Z,0.32
2023-01-26T19:36:21.526Z,0.21
2023-01-26T19:38:49.744Z,0.50
2023-01-26T19:41:17.829Z,0.56
2023-01-26T19:43:45.570Z,0.36
2023-01-26T19:46:13.770Z,0.35
2023-01-26T19:48:41.564Z,0.07
2023-01-26T19:51:17.581Z,0.12
2023-01-26T19:53:47.390Z,0.38
2023-01-26T19:56:28.396Z,0.53
2023-01-26T19:58:57.490Z,0.11
2023-01-26T20:01:26.139Z,0.05
2023-01-26T20:03:57.193Z,0.27
2023-01-26T20:06:27.667Z,0.52
2023-01-26T20:08:55.444Z,0.34
2023-01-26T20:11:25.043Z,0.60
2023-01-26T20:13:56.422Z,0.66
2023-01-26T20:16:24.384Z,0.41
2023-01-26T20:18:52.137Z,0.45
2023-01-26T20:21:19.921Z,0.62
2023-01-26T20:23:54.342Z,0.50
2023-01-26T20:26:24.572Z,0.20
2023-01-26T20:28:52.836Z,0.45
2023-01-26T20:31:21.963Z,0.19
2023-01-26T20:33:49.990Z,0.47
2023-01-26T20:36:19.486Z,0.28
2023-01-26T20:38:48.302Z,0.19
2023-01-26T20:41:21.419Z,0.11
2023-01-26T20:43:59.358Z,0.41
2023-01-26T20:46:29.887Z,0.50
2023-01-26T20:48:57.632Z,0.45
2023-01-26T20:51:29.410Z,0.72
2023-01-26T20:53:57.696Z,0.58
2023-01-26T20:56:25.597Z,0.35
2023-01-26T20:58:54.030Z,0.51
2023-01-26T21:01:22.168Z,0.34
2023-01-26T21:03:49.927Z,-0.23
2023-01-26T21:06:21.417Z,0.18
2023-01-26T21:08:49.692Z,0.20
2023-01-26T21:11:17.507Z,0.39
2023-01-26T21:13:45.404Z,0.50
2023-01-26T21:16:14.078Z,0.54
2023-01-26T21:18:41.906Z,0.56
2023-01-26T21:21:11.594Z,0.26
2023-01-26T21:23:39.340Z,0.07
2023-01-26T21:26:09.895Z,0.42
2023-01-26T21:28:37.582Z,0.21
2023-01-26T21:31:10.153Z,0.36
2023-01-26T21:33:39.336Z,0.42
2023-01-26T21:36:07.638Z,0.50
2023-01-26T21:38:37.640Z,0.33
2023-01-26T21:41:41.828Z,0.05
2023-01-26T21:44:32.855Z,-0.04
2023-01-26T21:47:03.063Z,0.05
2023-01-26T21:49:30.838Z,0.44
2023-01-26T21:52:17.416Z,0.49
2023-01-26T21:54:45.250Z,0.38
2023-01-26T21:57:31.384Z,0.72
2023-01-26T21:59:59.077Z,0.42
2023-01-26T22:02:26.768Z,0.59
2023-01-26T22:04:54.488Z,0.46
2023-01-26T22:07:22.166Z,0.19
2023-01-26T22:09:49.881Z,0.30
2023-01-26T22:12:17.772Z,0.36
2023-01-26T22:14:45.461Z,-0.22
2023-01-26T22:17:13.190Z,0.12
2023-01-26T22:19:40.894Z,0.46
2023-01-26T22:22:08.628Z,0.72
2023-01-26T22:24:36.380Z,0.69
2023-01-26T22:27:05.118Z,0.76
2023-01-26T22:29:32.814Z,0.52
2023-01-26T22:32:00.705Z,0.46
2023-01-26T22:34:28.466Z,0.24
2023-01-26T22:36:56.147Z,0.36
2023-01-26T22:39:23.841Z,0.38
2023-01-26T22:41:51.616Z,0.44
2023-01-26T22:44:19.359Z,0.66
2023-01-26T22:46:47.087Z,0.66
2023-01-26T22:49:14.848Z,0.58
2023-01-26T22:51:42.611Z,0.73
2023-01-26T22:54:10.404Z,0.69
2023-01-26T22:56:38.272Z,0.72
2023-01-26T22:59:05.926Z,0.81
2023-01-26T23:01:33.701Z,0.78
2023-01-26T23:04:01.706Z,0.75
2023-01-26T23:06:29.528Z,0.53
2023-01-26T23:08:58.422Z,0.74
2023-01-26T23:11:27.576Z,0.05
2023-01-26T23:13:55.784Z,0.41
2023-01-26T23:16:23.919Z,0.55
2023-01-26T23:18:52.784Z,0.23
2023-01-26T23:21:20.659Z,0.52
2023-01-26T23:23:48.498Z,0.53
2023-01-26T23:26:16.471Z,0.47
2023-01-26T23:28:44.351Z,0.60
2023-01-26T23:31:12.824Z,0.73
2023-01-26T23:33:40.599Z,0.66
2023-01-26T23:36:08.929Z,0.39
2023-01-26T23:38:36.645Z,0.59
2023-01-26T23:41:05.518Z,0.62
2023-01-26T23:43:33.220Z,0.62
2023-01-26T23:46:00.961Z,0.57
2023-01-26T23:48:28.671Z,0.68
2023-01-26T23:51:00.258Z,0.73
2023-01-26T23:53:28.300Z,0.55
2023-01-26T23:55:56.088Z,0.53
2023-01-26T23:58:23.775Z,0.60
